Kezdőlap
METAR-TAF:

METAR-TAF

Repülőterek :

Timimoun, Algéria

földrajzi szélesség: 29-15N, földrajzi hosszúság: 000-17E, magasság: 312 m

Jelenlegi meteorológiai megfigyelések

A jelentés 42 perccel ezelõtt készült, 12:00 UTC
Észak-északnyugati szél 4 kt
Hőmérséklet 41°C
Légköri nyomás 1009 hPa
Látótávolság 10 km, vagy több
felhőtlen 1500 m magasságban, és nincs gomolyfelhõ

METAR: DAUT 301200Z 33004KT CAVOK 41/// Q1009

Idő: 13:42 (12:42 UTC)

Előrejelzés

A jelentés 1 órával és 42 perccel ezelõtt készült, 11:00 UTC
Az előrejelzés 30-én 12 óra UTC és 30-én 21 óra UTC között érvényes
Keleti szél 9 kt
Látótávolság 10 km, vagy több
felhőtlen 1500 m magasságban, és nincs gomolyfelhõ

TAF: DAUT 301100Z 3012/3021 08009KT CAVOK

Meteorológiai megfigyelések és előrejelzések több, mint 4000 repülőtéren (METAR és TAF jelentéseket).

A térképen piros és sárga pontok jelzik az elérhető meteorológiai állomásokat.

Mozgassa az egeret a pont fölött, hogy megjelenjen az állomás neve.

Azután kattintson az időjárási megfigyelések és előrejelzések megtekintéséhez.

A térkép megváltoztatása: kattintson a fekete keresztel jelölt zöld gombra ráközelítéshez, a vonallal jelölt zöld gombra távolításhoz, vagy a zöld nyilakra a szomszédos térképek eléréséhez.


METAR-TAF: